Time;durP1;ratioP1;P1;durP2;ratioP2;P2;SDS_P1;SDS_P2;PMS_P1;PMS_P2;Temp;Humidity;BMP_temperature;BMP_pressure;BME280_temperature;BME280_humidity;BME280_pressure;Samples;Min_cycle;Max_cycle;Signal;HPM_P1;HPM_P2
2023/09/08 00:00:58;;;;;;;5.80;4.75;;;;;;;;;;5055853;28;20104;-58
2023/09/08 00:03:24;;;;;;;6.00;4.40;;;;;;;;;;5055270;28;20053;-58
2023/09/08 00:05:50;;;;;;;4.65;3.95;;;;;;;;;;5055185;28;20044;-58
2023/09/08 00:08:16;;;;;;;4.75;4.25;;;;;;;;;;5054881;28;20413;-58
2023/09/08 00:10:42;;;;;;;4.43;3.95;;;;;;;;;;5055171;28;20068;-58
2023/09/08 00:13:08;;;;;;;6.97;4.30;;;;;;;;;;5055370;28;20434;-58
2023/09/08 00:15:37;;;;;;;5.80;4.20;;;;;;;;;;5054660;28;20021;-58
2023/09/08 00:18:03;;;;;;;5.75;4.05;;;;;;;;;;5054973;28;20020;-58
2023/09/08 00:20:29;;;;;;;6.43;4.93;;;;;;;;;;5055374;28;20028;-58
2023/09/08 00:22:55;;;;;;;5.07;4.05;;;;;;;;;;5054817;28;20017;-58
2023/09/08 00:25:21;;;;;;;5.57;4.78;;;;;;;;;;5054956;28;20507;-58
2023/09/08 00:27:47;;;;;;;10.38;4.82;;;;;;;;;;5054526;28;20078;-58
2023/09/08 00:30:13;;;;;;;6.60;5.05;;;;;;;;;;5055029;28;20029;-58
2023/09/08 00:32:39;;;;;;;5.80;5.05;;;;;;;;;;5054250;28;20025;-58
2023/09/08 00:35:07;;;;;;;5.95;4.78;;;;;;;;;;5054615;28;20025;-58
2023/09/08 00:37:33;;;;;;;6.15;4.75;;;;;;;;;;5054735;28;20049;-58
2023/09/08 00:39:59;;;;;;;6.07;4.68;;;;;;;;;;5055139;28;20378;-58
2023/09/08 00:42:25;;;;;;;6.32;5.00;;;;;;;;;;5054488;28;20451;-58
2023/09/08 00:44:51;;;;;;;5.80;4.60;;;;;;;;;;5054560;28;20025;-58
2023/09/08 00:47:18;;;;;;;5.85;4.88;;;;;;;;;;5054916;28;20398;-58
2023/09/08 00:49:45;;;;;;;4.57;4.18;;;;;;;;;;5054946;28;20033;-57
2023/09/08 00:52:11;;;;;;;5.85;4.55;;;;;;;;;;5054231;28;20104;-57
2023/09/08 00:54:37;;;;;;;6.38;5.40;;;;;;;;;;5054279;28;20048;-58
2023/09/08 00:57:03;;;;;;;7.57;4.93;;;;;;;;;;5054282;28;20443;-57
2023/09/08 00:59:31;;;;;;;4.88;4.32;;;;;;;;;;5054455;28;20367;-57
2023/09/08 01:01:57;;;;;;;5.43;4.85;;;;;;;;;;5053893;28;20461;-58
2023/09/08 01:04:23;;;;;;;5.05;4.13;;;;;;;;;;5054580;28;20029;-58
2023/09/08 01:06:50;;;;;;;4.32;3.90;;;;;;;;;;5054232;28;20021;-58
2023/09/08 01:09:16;;;;;;;5.60;4.45;;;;;;;;;;5054546;28;20104;-58
2023/09/08 01:11:42;;;;;;;4.95;4.22;;;;;;;;;;5053970;28;20029;-57
2023/09/08 01:14:08;;;;;;;4.40;3.97;;;;;;;;;;5054444;28;20025;-58
2023/09/08 01:16:34;;;;;;;5.28;4.47;;;;;;;;;;5053893;28;20481;-57
2023/09/08 01:19:00;;;;;;;5.10;3.83;;;;;;;;;;5053804;28;20028;-57
2023/09/08 01:21:38;;;;;;;4.63;4.20;;;;;;;;;;5053850;28;20024;-57
2023/09/08 01:24:18;;;;;;;6.53;4.20;;;;;;;;;;5054095;28;20025;-58
2023/09/08 01:26:44;;;;;;;4.80;3.88;;;;;;;;;;5054639;28;20028;-57
2023/09/08 01:29:11;;;;;;;7.65;4.25;;;;;;;;;;5054058;28;20029;-58
2023/09/08 01:31:38;;;;;;;4.60;4.07;;;;;;;;;;5054411;28;20024;-57
2023/09/08 01:34:06;;;;;;;6.25;4.88;;;;;;;;;;5053637;28;20057;-57
2023/09/08 01:36:33;;;;;;;5.28;4.38;;;;;;;;;;5053289;28;20521;-57
2023/09/08 01:38:59;;;;;;;7.97;4.93;;;;;;;;;;5053780;28;20071;-57
2023/09/08 01:41:24;;;;;;;4.63;4.07;;;;;;;;;;5053621;28;20478;-58
2023/09/08 01:43:50;;;;;;;6.60;4.22;;;;;;;;;;5053804;28;20447;-58
2023/09/08 01:46:16;;;;;;;7.13;4.82;;;;;;;;;;5053475;28;20025;-57
2023/09/08 01:48:42;;;;;;;6.28;4.65;;;;;;;;;;5053454;28;20075;-57
2023/09/08 01:51:08;;;;;;;5.95;4.72;;;;;;;;;;5053936;28;20048;-60
2023/09/08 01:53:34;;;;;;;4.75;4.30;;;;;;;;;;5053408;28;20455;-60
2023/09/08 01:56:00;;;;;;;4.95;4.45;;;;;;;;;;5053452;28;20021;-60
2023/09/08 01:58:26;;;;;;;5.53;4.93;;;;;;;;;;5053388;28;20021;-60
2023/09/08 02:00:52;;;;;;;4.40;3.88;;;;;;;;;;5054204;28;20439;-60
2023/09/08 02:03:18;;;;;;;6.10;5.03;;;;;;;;;;5053925;28;20485;-60
2023/09/08 02:05:45;;;;;;;6.20;4.63;;;;;;;;;;5053882;28;20032;-58
2023/09/08 02:08:12;;;;;;;5.45;4.40;;;;;;;;;;5053278;28;20032;-57
2023/09/08 02:10:40;;;;;;;5.20;4.70;;;;;;;;;;5053818;28;20021;-58
2023/09/08 02:13:06;;;;;;;4.88;3.83;;;;;;;;;;5053147;28;20025;-57
2023/09/08 02:15:35;;;;;;;5.30;4.57;;;;;;;;;;5053683;28;20123;-57
2023/09/08 02:18:00;;;;;;;6.72;5.13;;;;;;;;;;5053199;28;20061;-58
2023/09/08 02:20:26;;;;;;;5.93;4.53;;;;;;;;;;5053837;28;20056;-58
2023/09/08 02:22:54;;;;;;;7.68;4.70;;;;;;;;;;5053435;28;20029;-57
2023/09/08 02:25:20;;;;;;;4.65;4.25;;;;;;;;;;5053097;28;20017;-57
2023/09/08 02:27:46;;;;;;;7.15;5.18;;;;;;;;;;5053180;28;20469;-58
2023/09/08 02:30:15;;;;;;;5.45;4.80;;;;;;;;;;5053698;28;20099;-57
2023/09/08 02:32:42;;;;;;;4.78;4.13;;;;;;;;;;5052706;28;20029;-57
2023/09/08 02:35:09;;;;;;;6.07;4.82;;;;;;;;;;5053004;28;20037;-57
2023/09/08 02:37:35;;;;;;;5.95;4.43;;;;;;;;;;5052771;28;20060;-57
2023/09/08 02:40:02;;;;;;;5.75;4.78;;;;;;;;;;5053320;28;20025;-57
2023/09/08 02:42:28;;;;;;;4.88;4.35;;;;;;;;;;5052990;28;20033;-57
2023/09/08 02:44:54;;;;;;;5.35;4.75;;;;;;;;;;5052895;28;20367;-57
2023/09/08 02:47:19;;;;;;;5.50;4.88;;;;;;;;;;5053132;28;20021;-57
2023/09/08 02:49:45;;;;;;;4.68;4.25;;;;;;;;;;5054593;28;20057;-57
2023/09/08 02:52:11;;;;;;;7.90;5.15;;;;;;;;;;5056528;28;20025;-57
2023/09/08 02:54:37;;;;;;;8.80;5.28;;;;;;;;;;5056468;28;20087;-57
2023/09/08 02:57:03;;;;;;;5.20;4.70;;;;;;;;;;5057033;28;20025;-57
2023/09/08 02:59:29;;;;;;;9.98;5.13;;;;;;;;;;5056568;28;20532;-58
2023/09/08 03:01:55;;;;;;;5.55;4.25;;;;;;;;;;5056388;28;20036;-58
2023/09/08 03:04:21;;;;;;;6.53;4.82;;;;;;;;;;5056361;28;20031;-57
2023/09/08 03:06:47;;;;;;;5.28;4.43;;;;;;;;;;5056071;28;20112;-57
2023/09/08 03:09:13;;;;;;;5.95;5.18;;;;;;;;;;5056377;28;20036;-57
2023/09/08 03:11:39;;;;;;;4.95;4.38;;;;;;;;;;5056162;28;20048;-57
2023/09/08 03:14:05;;;;;;;6.60;5.18;;;;;;;;;;5055871;28;20486;-57
2023/09/08 03:16:31;;;;;;;6.25;5.05;;;;;;;;;;5056419;28;20032;-57
2023/09/08 03:18:58;;;;;;;7.05;5.00;;;;;;;;;;5056122;28;20017;-57
2023/09/08 03:21:24;;;;;;;8.57;4.72;;;;;;;;;;5056637;28;20171;-57
2023/09/08 03:23:50;;;;;;;5.93;4.80;;;;;;;;;;5056055;28;20477;-57
2023/09/08 03:26:16;;;;;;;4.68;4.18;;;;;;;;;;5056202;28;20032;-57
2023/09/08 03:28:44;;;;;;;5.40;4.75;;;;;;;;;;5056011;28;20100;-57
2023/09/08 03:31:10;;;;;;;6.13;4.70;;;;;;;;;;5055875;28;20098;-57
2023/09/08 03:33:36;;;;;;;5.10;4.30;;;;;;;;;;5056047;28;20072;-57
2023/09/08 03:36:02;;;;;;;6.72;5.13;;;;;;;;;;5055491;28;20049;-57
2023/09/08 03:38:28;;;;;;;5.28;4.50;;;;;;;;;;5056608;28;20127;-57
2023/09/08 03:40:54;;;;;;;6.35;4.68;;;;;;;;;;5055809;28;20059;-57
2023/09/08 03:43:20;;;;;;;6.72;5.00;;;;;;;;;;5056215;28;20025;-57
2023/09/08 03:45:47;;;;;;;6.43;5.28;;;;;;;;;;5055821;28;20021;-57
2023/09/08 03:48:13;;;;;;;5.00;4.50;;;;;;;;;;5056076;28;20071;-60
2023/09/08 03:50:39;;;;;;;7.70;5.18;;;;;;;;;;5055466;28;20021;-58
2023/09/08 03:53:05;;;;;;;5.72;5.07;;;;;;;;;;5055290;28;20056;-58
2023/09/08 03:55:31;;;;;;;7.53;5.78;;;;;;;;;;5055403;28;20020;-58
2023/09/08 03:57:57;;;;;;;6.35;5.35;;;;;;;;;;5055816;28;20094;-57
2023/09/08 04:00:23;;;;;;;5.57;5.05;;;;;;;;;;5055169;28;20070;-58
2023/09/08 04:02:49;;;;;;;6.10;5.22;;;;;;;;;;5055940;28;20518;-58
2023/09/08 04:05:15;;;;;;;7.45;4.95;;;;;;;;;;5055355;28;20104;-58
2023/09/08 04:07:41;;;;;;;6.15;5.22;;;;;;;;;;5055480;28;20104;-58
2023/09/08 04:10:08;;;;;;;5.68;5.07;;;;;;;;;;5056057;28;20358;-58
2023/09/08 04:12:34;;;;;;;6.25;4.75;;;;;;;;;;5055170;28;20036;-58
2023/09/08 04:15:00;;;;;;;7.80;6.22;;;;;;;;;;5055169;28;20469;-58
2023/09/08 04:17:25;;;;;;;7.38;5.82;;;;;;;;;;5054852;28;20032;-58
2023/09/08 04:19:51;;;;;;;7.40;6.53;;;;;;;;;;5055582;28;20031;-57
2023/09/08 04:22:17;;;;;;;6.63;5.20;;;;;;;;;;5055029;28;20036;-58
2023/09/08 04:24:43;;;;;;;5.18;4.43;;;;;;;;;;5054946;28;20098;-57
2023/09/08 04:27:10;;;;;;;6.53;5.85;;;;;;;;;;5055201;28;20455;-58
2023/09/08 04:29:36;;;;;;;5.95;5.03;;;;;;;;;;5055491;28;20025;-58
2023/09/08 04:32:08;;;;;;;5.35;4.85;;;;;;;;;;5054919;28;20040;-58
2023/09/08 04:34:34;;;;;;;6.15;5.20;;;;;;;;;;5054739;28;20033;-58
2023/09/08 04:37:00;;;;;;;5.28;4.75;;;;;;;;;;5054640;28;20124;-61
2023/09/08 04:39:29;;;;;;;5.75;5.13;;;;;;;;;;5053673;28;20029;-58
2023/09/08 04:41:55;;;;;;;6.18;4.72;;;;;;;;;;5054578;28;20086;-57
2023/09/08 04:44:20;;;;;;;5.85;5.25;;;;;;;;;;5055327;28;20104;-58
2023/09/08 04:46:46;;;;;;;8.15;6.10;;;;;;;;;;5054475;28;20017;-57
2023/09/08 04:49:12;;;;;;;8.30;5.32;;;;;;;;;;5055039;28;20017;-57
2023/09/08 04:51:38;;;;;;;5.88;5.20;;;;;;;;;;5054626;28;20033;-58
2023/09/08 04:54:04;;;;;;;5.65;5.05;;;;;;;;;;5054408;28;20406;-58
2023/09/08 04:56:30;;;;;;;6.25;5.45;;;;;;;;;;5054363;28;20028;-58
2023/09/08 04:58:57;;;;;;;6.68;5.60;;;;;;;;;;5055086;28;20398;-58
2023/09/08 05:01:23;;;;;;;6.63;5.20;;;;;;;;;;5054225;28;20029;-58
2023/09/08 05:03:49;;;;;;;6.05;5.10;;;;;;;;;;5054673;28;20481;-59
2023/09/08 05:06:15;;;;;;;7.78;4.95;;;;;;;;;;5053885;28;20070;-59
2023/09/08 05:08:41;;;;;;;6.30;4.95;;;;;;;;;;5053775;28;20032;-59
2023/09/08 05:11:07;;;;;;;7.18;5.60;;;;;;;;;;5054301;28;20033;-59
2023/09/08 05:13:33;;;;;;;5.78;4.88;;;;;;;;;;5052961;28;20033;-59
2023/09/08 05:16:11;;;;;;;6.40;5.18;;;;;;;;;;5054065;28;20036;-59
2023/09/08 05:18:40;;;;;;;6.32;5.68;;;;;;;;;;5054538;28;20332;-59
2023/09/08 05:21:06;;;;;;;6.20;5.18;;;;;;;;;;5054558;28;20108;-59
2023/09/08 05:23:32;;;;;;;7.45;4.65;;;;;;;;;;5053922;28;20047;-59
2023/09/08 05:25:58;;;;;;;6.38;5.38;;;;;;;;;;5054394;28;20339;-59
2023/09/08 05:28:24;;;;;;;5.90;5.30;;;;;;;;;;5054690;28;20025;-59
2023/09/08 05:30:53;;;;;;;7.35;6.30;;;;;;;;;;5054091;28;20040;-59
2023/09/08 05:33:19;;;;;;;6.72;5.95;;;;;;;;;;5053700;28;20041;-59
2023/09/08 05:35:46;;;;;;;7.47;5.32;;;;;;;;;;5053739;28;20422;-59
2023/09/08 05:38:12;;;;;;;6.53;5.75;;;;;;;;;;5054507;28;20041;-59
2023/09/08 05:40:38;;;;;;;6.75;5.53;;;;;;;;;;5053965;28;20099;-59
2023/09/08 05:43:04;;;;;;;7.15;5.57;;;;;;;;;;5053636;28;20459;-59
2023/09/08 05:45:32;;;;;;;6.88;5.55;;;;;;;;;;5053497;28;20024;-59
2023/09/08 05:47:58;;;;;;;5.93;5.35;;;;;;;;;;5053996;28;20370;-59
2023/09/08 05:50:24;;;;;;;7.70;6.25;;;;;;;;;;5053585;28;20033;-59
2023/09/08 05:52:49;;;;;;;9.00;7.00;;;;;;;;;;5053282;28;20127;-59
2023/09/08 05:55:15;;;;;;;7.00;6.28;;;;;;;;;;5053427;28;20033;-59
2023/09/08 05:57:41;;;;;;;8.18;6.70;;;;;;;;;;5053443;28;20021;-59
2023/09/08 06:00:08;;;;;;;6.63;5.32;;;;;;;;;;5052903;28;20025;-59
2023/09/08 06:02:34;;;;;;;7.57;6.80;;;;;;;;;;5053710;28;20111;-59
2023/09/08 06:05:00;;;;;;;8.77;6.82;;;;;;;;;;5052890;28;20556;-59
2023/09/08 06:07:26;;;;;;;7.40;6.72;;;;;;;;;;5052998;28;20028;-59
2023/09/08 06:09:52;;;;;;;7.53;6.57;;;;;;;;;;5053353;28;20108;-59
2023/09/08 06:12:21;;;;;;;8.07;6.60;;;;;;;;;;5053839;28;20467;-59
2023/09/08 06:14:46;;;;;;;7.97;6.65;;;;;;;;;;5053139;28;20238;-59
2023/09/08 06:17:12;;;;;;;8.55;7.28;;;;;;;;;;5053153;28;20431;-60
2023/09/08 06:19:38;;;;;;;9.25;7.13;;;;;;;;;;5053956;28;20025;-59
2023/09/08 06:22:04;;;;;;;7.45;6.72;;;;;;;;;;5053172;28;20362;-59
2023/09/08 06:24:30;;;;;;;8.00;7.22;;;;;;;;;;5055871;28;20096;-59
2023/09/08 06:26:56;;;;;;;9.98;8.57;;;;;;;;;;5057685;28;20060;-60
2023/09/08 06:29:22;;;;;;;8.35;7.30;;;;;;;;;;5057294;28;20319;-59
2023/09/08 06:31:48;;;;;;;8.32;7.40;;;;;;;;;;5057013;28;20025;-59
2023/09/08 06:34:14;;;;;;;9.13;7.65;;;;;;;;;;5056942;28;20132;-59
2023/09/08 06:36:40;;;;;;;7.15;6.28;;;;;;;;;;5056698;28;20081;-60
2023/09/08 06:39:06;;;;;;;7.35;6.63;;;;;;;;;;5057467;28;20021;-60
2023/09/08 06:41:32;;;;;;;7.43;6.57;;;;;;;;;;5056917;28;20029;-59
2023/09/08 06:43:58;;;;;;;8.00;7.25;;;;;;;;;;5056622;28;20473;-59
2023/09/08 06:46:24;;;;;;;8.50;7.57;;;;;;;;;;5057247;28;20060;-59
2023/09/08 06:48:50;;;;;;;9.65;8.13;;;;;;;;;;5056773;28;20032;-59
2023/09/08 06:51:16;;;;;;;8.25;7.15;;;;;;;;;;5057256;28;20108;-59
2023/09/08 06:53:44;;;;;;;9.27;6.88;;;;;;;;;;5056702;28;20032;-59
2023/09/08 06:56:10;;;;;;;7.35;6.63;;;;;;;;;;5057220;28;20021;-59
2023/09/08 06:58:35;;;;;;;6.90;6.22;;;;;;;;;;5056601;28;20420;-60
2023/09/08 07:01:02;;;;;;;6.95;6.22;;;;;;;;;;5057091;28;20127;-60
2023/09/08 07:03:28;;;;;;;11.35;7.00;;;;;;;;;;5056561;28;20035;-60
2023/09/08 07:05:54;;;;;;;7.43;6.72;;;;;;;;;;5057003;28;20418;-60
2023/09/08 07:08:20;;;;;;;7.32;6.15;;;;;;;;;;5056146;28;20024;-60
2023/09/08 07:10:46;;;;;;;7.85;6.82;;;;;;;;;;5056761;28;20071;-60
2023/09/08 07:13:12;;;;;;;6.78;6.10;;;;;;;;;;5056534;28;20447;-59
2023/09/08 07:15:38;;;;;;;7.53;6.63;;;;;;;;;;5056072;28;20031;-60
2023/09/08 07:18:04;;;;;;;8.82;6.60;;;;;;;;;;5056827;28;20329;-60
2023/09/08 07:20:30;;;;;;;7.63;6.03;;;;;;;;;;5056793;28;20075;-60
2023/09/08 07:22:56;;;;;;;8.52;6.72;;;;;;;;;;5056167;28;20029;-60
2023/09/08 07:25:21;;;;;;;8.82;7.05;;;;;;;;;;5055903;28;20036;-59
2023/09/08 07:27:47;;;;;;;9.02;6.97;;;;;;;;;;5056322;28;20065;-59
2023/09/08 07:30:13;;;;;;;10.75;7.00;;;;;;;;;;5056496;28;20032;-59
2023/09/08 07:32:39;;;;;;;8.23;6.78;;;;;;;;;;5055932;28;20434;-59
2023/09/08 07:35:13;;;;;;;6.80;5.55;;;;;;;;;;5055065;28;20455;-59
2023/09/08 07:37:39;;;;;;;9.85;6.13;;;;;;;;;;5055913;28;20128;-59
2023/09/08 07:40:05;;;;;;;7.70;6.68;;;;;;;;;;5056107;28;20021;-59
2023/09/08 07:42:31;;;;;;;9.82;5.90;;;;;;;;;;5055365;28;20505;-59
2023/09/08 07:44:57;;;;;;;7.18;6.25;;;;;;;;;;5055722;28;20100;-59
2023/09/08 07:47:23;;;;;;;6.80;6.18;;;;;;;;;;5055641;28;20096;-59
2023/09/08 07:49:49;;;;;;;7.88;7.00;;;;;;;;;;5055902;28;20028;-59
2023/09/08 07:52:15;;;;;;;7.57;5.80;;;;;;;;;;5055465;28;20021;-59
2023/09/08 07:54:41;;;;;;;7.13;5.22;;;;;;;;;;5055474;28;20110;-59
2023/09/08 07:57:07;;;;;;;6.57;5.90;;;;;;;;;;5055565;28;20082;-59
2023/09/08 07:59:33;;;;;;;8.15;6.22;;;;;;;;;;5055574;28;20423;-60
2023/09/08 08:01:59;;;;;;;7.45;6.30;;;;;;;;;;5055244;28;20071;-59
2023/09/08 08:04:25;;;;;;;6.13;5.50;;;;;;;;;;5055683;28;20028;-59
2023/09/08 08:06:51;;;;;;;7.85;6.55;;;;;;;;;;5055304;28;20025;-59
2023/09/08 08:09:17;;;;;;;6.97;5.53;;;;;;;;;;5055269;28;20025;-60
2023/09/08 08:11:43;;;;;;;6.57;5.97;;;;;;;;;;5055649;28;20120;-60
2023/09/08 08:14:09;;;;;;;5.70;5.15;;;;;;;;;;5055238;28;20170;-59
2023/09/08 08:16:35;;;;;;;6.55;5.60;;;;;;;;;;5054751;28;20021;-60
2023/09/08 08:19:01;;;;;;;6.53;5.50;;;;;;;;;;5055774;28;20066;-60
2023/09/08 08:21:27;;;;;;;6.65;5.30;;;;;;;;;;5055043;28;20033;-59
2023/09/08 08:23:53;;;;;;;6.25;5.50;;;;;;;;;;5055396;28;20028;-60
2023/09/08 08:26:19;;;;;;;9.82;5.32;;;;;;;;;;5055415;28;20115;-59
2023/09/08 08:28:45;;;;;;;5.88;5.05;;;;;;;;;;5054945;28;20021;-59
2023/09/08 08:31:11;;;;;;;5.97;5.38;;;;;;;;;;5055345;28;20398;-59
2023/09/08 08:33:37;;;;;;;6.05;5.45;;;;;;;;;;5055495;28;20028;-60
2023/09/08 08:36:03;;;;;;;5.95;5.03;;;;;;;;;;5054758;28;20459;-59
2023/09/08 08:38:29;;;;;;;9.27;5.28;;;;;;;;;;5054821;28;20475;-60
2023/09/08 08:40:55;;;;;;;6.10;5.18;;;;;;;;;;5054708;28;20021;-60
2023/09/08 08:43:22;;;;;;;6.32;4.90;;;;;;;;;;5055011;28;20522;-60
2023/09/08 08:45:48;;;;;;;5.60;4.88;;;;;;;;;;5054304;28;20476;-60
2023/09/08 08:48:15;;;;;;;5.88;4.70;;;;;;;;;;5054619;28;20032;-60
2023/09/08 08:50:44;;;;;;;7.32;5.80;;;;;;;;;;5055347;28;20017;-60
2023/09/08 08:53:09;;;;;;;6.30;5.60;;;;;;;;;;5054553;28;20470;-60
2023/09/08 08:55:35;;;;;;;7.30;5.22;;;;;;;;;;5054245;28;20033;-60
2023/09/08 08:58:04;;;;;;;5.93;5.32;;;;;;;;;;5054404;28;20028;-60
2023/09/08 09:00:30;;;;;;;5.80;5.30;;;;;;;;;;5055145;28;20103;-60
2023/09/08 09:02:56;;;;;;;6.97;5.40;;;;;;;;;;5054183;28;20351;-60
2023/09/08 09:05:22;;;;;;;5.10;4.60;;;;;;;;;;5053891;28;20513;-60
2023/09/08 09:07:48;;;;;;;7.50;5.22;;;;;;;;;;5054158;28;20025;-60
2023/09/08 09:10:14;;;;;;;5.88;5.28;;;;;;;;;;5054192;28;20096;-60
2023/09/08 09:12:40;;;;;;;6.18;5.43;;;;;;;;;;5054508;28;20112;-60
2023/09/08 09:15:08;;;;;;;5.18;4.60;;;;;;;;;;5054077;28;20233;-60
2023/09/08 09:17:34;;;;;;;5.88;4.95;;;;;;;;;;5053950;28;20051;-60
2023/09/08 09:20:17;;;;;;;5.28;4.78;;;;;;;;;;5054124;28;20079;-60
2023/09/08 09:22:44;;;;;;;5.47;4.85;;;;;;;;;;5053486;28;20509;-60
2023/09/08 09:25:10;;;;;;;7.38;4.95;;;;;;;;;;5054153;28;20112;-60
2023/09/08 09:27:42;;;;;;;4.95;4.53;;;;;;;;;;5053696;28;20021;-60
2023/09/08 09:30:08;;;;;;;8.65;5.22;;;;;;;;;;5053657;28;20033;-60
2023/09/08 09:32:35;;;;;;;6.15;4.57;;;;;;;;;;5053696;28;20150;-60
2023/09/08 09:35:01;;;;;;;5.13;4.10;;;;;;;;;;5053695;28;20029;-60
2023/09/08 09:37:27;;;;;;;7.47;5.07;;;;;;;;;;5053756;28;20055;-60
2023/09/08 09:39:54;;;;;;;6.07;5.47;;;;;;;;;;5053513;28;20052;-60
2023/09/08 09:42:20;;;;;;;4.90;4.22;;;;;;;;;;5053719;28;20032;-60
2023/09/08 09:44:51;;;;;;;5.00;4.50;;;;;;;;;;5053587;28;20474;-60
2023/09/08 09:47:17;;;;;;;5.35;4.85;;;;;;;;;;5053731;28;20033;-60
2023/09/08 09:49:43;;;;;;;7.63;5.00;;;;;;;;;;5054173;28;20431;-60
2023/09/08 09:52:12;;;;;;;5.88;5.28;;;;;;;;;;5053410;28;20455;-60
2023/09/08 09:54:38;;;;;;;5.75;5.15;;;;;;;;;;5054023;28;20029;-60
2023/09/08 09:57:05;;;;;;;5.95;5.30;;;;;;;;;;5053496;28;20358;-60
2023/09/08 09:59:31;;;;;;;5.72;5.18;;;;;;;;;;5058447;28;20463;-60
2023/09/08 10:01:58;;;;;;;7.70;5.63;;;;;;;;;;5060023;28;20083;-60
2023/09/08 10:04:24;;;;;;;5.80;4.78;;;;;;;;;;5060023;28;20025;-60
2023/09/08 10:06:52;;;;;;;6.70;5.20;;;;;;;;;;5059814;28;20025;-60
2023/09/08 10:09:19;;;;;;;6.53;5.68;;;;;;;;;;5060184;28;20024;-60
2023/09/08 10:11:49;;;;;;;5.93;4.60;;;;;;;;;;5060611;28;20025;-60
2023/09/08 10:14:15;;;;;;;5.50;4.57;;;;;;;;;;5060226;28;20025;-60
2023/09/08 10:16:43;;;;;;;6.30;4.53;;;;;;;;;;5059891;28;20056;-60
2023/09/08 10:19:10;;;;;;;5.90;5.30;;;;;;;;;;5059955;28;20012;-60
2023/09/08 10:21:56;;;;;;;5.07;4.28;;;;;;;;;;5060416;28;20025;-60
2023/09/08 10:24:23;;;;;;;8.95;4.38;;;;;;;;;;5060117;28;20410;-60
2023/09/08 10:26:57;;;;;;;5.45;4.30;;;;;;;;;;5060714;28;20024;-60
2023/09/08 10:29:23;;;;;;;6.93;4.72;;;;;;;;;;5060251;28;20363;-60
2023/09/08 10:31:49;;;;;;;6.60;4.95;;;;;;;;;;5059795;28;20036;-60
2023/09/08 10:34:15;;;;;;;5.38;4.85;;;;;;;;;;5060072;28;20051;-60
2023/09/08 10:36:41;;;;;;;6.82;5.30;;;;;;;;;;5059987;28;20128;-61
2023/09/08 10:39:26;;;;;;;8.23;4.40;;;;;;;;;;5059705;28;20123;-60
2023/09/08 10:42:12;;;;;;;9.10;5.95;;;;;;;;;;5060007;28;20037;-60
2023/09/08 10:44:39;;;;;;;5.35;4.57;;;;;;;;;;5060433;28;20047;-60
2023/09/08 10:47:05;;;;;;;5.60;4.95;;;;;;;;;;5059693;28;20079;-60
2023/09/08 10:49:35;;;;;;;8.65;4.72;;;;;;;;;;5060076;28;20409;-60
2023/09/08 10:52:11;;;;;;;4.68;4.20;;;;;;;;;;5059374;28;20493;-60
2023/09/08 10:54:43;;;;;;;5.38;4.75;;;;;;;;;;5059650;28;20040;-60
2023/09/08 10:57:25;;;;;;;7.13;4.32;;;;;;;;;;5059573;28;20029;-60
2023/09/08 10:59:54;;;;;;;5.55;4.53;;;;;;;;;;5060439;28;20403;-61
2023/09/08 11:02:41;;;;;;;6.15;5.55;;;;;;;;;;5059511;28;20074;-61
2023/09/08 11:05:08;;;;;;;5.22;4.47;;;;;;;;;;5059434;28;20032;-60
2023/09/08 11:07:36;;;;;;;7.70;4.57;;;;;;;;;;5059421;28;20024;-60
2023/09/08 11:10:02;;;;;;;5.60;4.78;;;;;;;;;;5057438;28;20090;-61
2023/09/08 11:12:32;;;;;;;5.60;4.72;;;;;;;;;;5056551;28;20024;-60
2023/09/08 11:15:00;;;;;;;5.27;4.77;;;;;;;;;;5056264;28;20032;-61
2023/09/08 11:17:29;;;;;;;6.97;4.57;;;;;;;;;;5055869;28;20506;-61
2023/09/08 11:19:55;;;;;;;4.60;4.15;;;;;;;;;;5056486;28;20100;-60
2023/09/08 11:22:23;;;;;;;5.00;4.25;;;;;;;;;;5056777;28;20411;-61
2023/09/08 11:24:49;;;;;;;4.82;4.00;;;;;;;;;;5056598;28;20036;-60
2023/09/08 11:27:15;;;;;;;6.15;4.57;;;;;;;;;;5056062;28;20028;-60
2023/09/08 11:29:41;;;;;;;5.60;5.03;;;;;;;;;;5056326;28;20033;-61
2023/09/08 11:32:08;;;;;;;5.75;5.15;;;;;;;;;;5055856;28;20032;-60
2023/09/08 11:34:37;;;;;;;6.45;5.13;;;;;;;;;;5055747;28;20021;-61
2023/09/08 11:37:08;;;;;;;6.10;4.75;;;;;;;;;;5055350;28;20517;-61
2023/09/08 11:39:36;;;;;;;5.60;3.90;;;;;;;;;;5055725;28;20033;-61
2023/09/08 11:42:03;;;;;;;5.97;4.57;;;;;;;;;;5055801;28;20029;-61
2023/09/08 11:44:29;;;;;;;6.20;4.72;;;;;;;;;;5056314;28;20100;-61
2023/09/08 11:46:55;;;;;;;6.43;4.50;;;;;;;;;;5055794;28;20102;-61
2023/09/08 11:49:22;;;;;;;4.50;4.10;;;;;;;;;;5056468;28;20348;-61
2023/09/08 11:51:48;;;;;;;5.93;5.05;;;;;;;;;;5055494;28;20493;-61
2023/09/08 11:54:14;;;;;;;6.95;4.53;;;;;;;;;;5056032;28;20032;-60
2023/09/08 11:56:40;;;;;;;8.95;5.00;;;;;;;;;;5055558;28;20358;-61
2023/09/08 11:59:06;;;;;;;4.70;4.13;;;;;;;;;;5055840;28;20103;-61
2023/09/08 12:01:32;;;;;;;4.90;4.32;;;;;;;;;;5056174;28;20076;-61
2023/09/08 12:03:58;;;;;;;5.78;4.82;;;;;;;;;;5055122;28;20424;-61
2023/09/08 12:06:27;;;;;;;4.55;4.15;;;;;;;;;;5055855;28;20418;-61
2023/09/08 12:08:59;;;;;;;5.47;4.85;;;;;;;;;;5055808;28;20025;-61
2023/09/08 12:11:24;;;;;;;6.47;4.63;;;;;;;;;;5055256;28;20036;-61
2023/09/08 12:13:50;;;;;;;5.70;4.68;;;;;;;;;;5055235;28;20379;-61
2023/09/08 12:16:20;;;;;;;6.20;3.83;;;;;;;;;;5055085;28;20086;-61
2023/09/08 12:18:45;;;;;;;5.15;4.65;;;;;;;;;;5055518;28;20402;-60
2023/09/08 12:21:12;;;;;;;5.45;4.70;;;;;;;;;;5055057;28;20029;-61
2023/09/08 12:23:48;;;;;;;7.55;5.32;;;;;;;;;;5055084;28;20078;-61
2023/09/08 12:26:16;;;;;;;6.20;5.28;;;;;;;;;;5055003;28;20078;-61
2023/09/08 12:28:42;;;;;;;5.18;4.60;;;;;;;;;;5055445;28;20179;-61
2023/09/08 12:31:08;;;;;;;5.43;4.85;;;;;;;;;;5055441;28;20348;-60
2023/09/08 12:33:35;;;;;;;5.57;5.07;;;;;;;;;;5055299;28;20355;-61
2023/09/08 12:36:10;;;;;;;5.57;4.50;;;;;;;;;;5054974;28;20543;-61
2023/09/08 12:38:37;;;;;;;5.30;4.80;;;;;;;;;;5055126;28;20383;-60
2023/09/08 12:41:03;;;;;;;5.13;4.40;;;;;;;;;;5055319;28;20028;-61
2023/09/08 12:43:29;;;;;;;6.82;5.05;;;;;;;;;;5054989;28;20025;-60
2023/09/08 12:45:56;;;;;;;5.60;4.93;;;;;;;;;;5055020;28;20017;-60
2023/09/08 12:48:22;;;;;;;5.18;4.45;;;;;;;;;;5055042;28;20503;-61
2023/09/08 12:50:48;;;;;;;5.40;4.78;;;;;;;;;;5055012;28;20368;-60
2023/09/08 12:53:14;;;;;;;5.85;5.20;;;;;;;;;;5054347;28;20027;-60
2023/09/08 12:55:40;;;;;;;5.60;4.28;;;;;;;;;;5054655;28;20033;-61
2023/09/08 12:58:06;;;;;;;6.53;5.07;;;;;;;;;;5054004;28;20044;-61
2023/09/08 13:00:32;;;;;;;5.35;4.85;;;;;;;;;;5054873;28;20036;-60
2023/09/08 13:02:58;;;;;;;6.40;5.05;;;;;;;;;;5054202;28;20035;-61
2023/09/08 13:05:24;;;;;;;6.93;5.13;;;;;;;;;;5054093;28;20124;-61
2023/09/08 13:07:50;;;;;;;5.68;5.07;;;;;;;;;;5054349;28;20027;-61
2023/09/08 13:10:16;;;;;;;5.35;4.82;;;;;;;;;;5054571;28;20028;-61
2023/09/08 13:12:42;;;;;;;5.32;4.82;;;;;;;;;;5053830;28;20048;-61
2023/09/08 13:15:08;;;;;;;6.07;5.47;;;;;;;;;;5053954;28;20025;-60
2023/09/08 13:17:34;;;;;;;6.30;5.05;;;;;;;;;;5054361;28;20024;-61
2023/09/08 13:20:00;;;;;;;6.88;5.47;;;;;;;;;;5054083;28;20021;-61
2023/09/08 13:22:26;;;;;;;5.82;5.22;;;;;;;;;;5054166;28;20118;-61
2023/09/08 13:24:52;;;;;;;5.90;5.10;;;;;;;;;;5053684;28;20017;-61
2023/09/08 13:27:18;;;;;;;5.93;5.05;;;;;;;;;;5053604;28;20528;-61
2023/09/08 13:29:44;;;;;;;6.68;5.10;;;;;;;;;;5053672;28;20025;-61
2023/09/08 13:32:10;;;;;;;7.20;4.50;;;;;;;;;;5053611;28;20041;-61
2023/09/08 13:34:38;;;;;;;6.60;4.43;;;;;;;;;;5052765;28;20037;-60
2023/09/08 13:37:04;;;;;;;5.38;4.72;;;;;;;;;;5052877;28;20111;-61
2023/09/08 13:39:30;;;;;;;5.38;4.32;;;;;;;;;;5053450;28;20029;-61
2023/09/08 13:41:57;;;;;;;5.75;4.85;;;;;;;;;;5053451;28;20031;-61
2023/09/08 13:44:23;;;;;;;5.90;5.13;;;;;;;;;;5053385;28;20082;-61
2023/09/08 13:46:50;;;;;;;5.25;4.72;;;;;;;;;;5053149;28;20025;-60
2023/09/08 13:49:16;;;;;;;5.13;4.57;;;;;;;;;;5054044;28;20025;-61
2023/09/08 13:51:42;;;;;;;5.85;5.03;;;;;;;;;;5053268;28;20460;-61
2023/09/08 13:54:09;;;;;;;7.93;4.72;;;;;;;;;;5053611;28;20029;-61
2023/09/08 13:56:35;;;;;;;6.10;4.82;;;;;;;;;;5053967;28;20060;-61
2023/09/08 13:59:04;;;;;;;5.15;4.65;;;;;;;;;;5053434;28;20079;-61
2023/09/08 14:01:31;;;;;;;4.72;3.70;;;;;;;;;;5053416;28;20108;-61
2023/09/08 14:03:57;;;;;;;6.53;4.75;;;;;;;;;;5053481;28;20351;-61
2023/09/08 14:06:24;;;;;;;4.90;4.40;;;;;;;;;;5053079;28;20036;-61
2023/09/08 14:08:50;;;;;;;6.22;5.25;;;;;;;;;;5053873;28;20022;-61
2023/09/08 14:11:16;;;;;;;5.28;4.53;;;;;;;;;;5053963;28;20462;-61
2023/09/08 14:13:43;;;;;;;5.47;4.78;;;;;;;;;;5053265;28;20037;-60
2023/09/08 14:16:08;;;;;;;4.85;4.35;;;;;;;;;;5053277;28;20105;-61
2023/09/08 14:18:34;;;;;;;4.45;3.72;;;;;;;;;;5053458;28;20028;-61
2023/09/08 14:21:01;;;;;;;4.75;4.25;;;;;;;;;;5053861;28;20025;-61
2023/09/08 14:23:27;;;;;;;4.60;3.78;;;;;;;;;;5053110;28;20382;-61
2023/09/08 14:25:52;;;;;;;5.63;4.60;;;;;;;;;;5053082;28;20025;-61
2023/09/08 14:28:18;;;;;;;4.80;3.88;;;;;;;;;;5053075;28;20025;-61
2023/09/08 14:30:44;;;;;;;5.95;3.97;;;;;;;;;;5053759;28;20021;-61
2023/09/08 14:33:10;;;;;;;4.75;3.90;;;;;;;;;;5052895;28;20481;-61
2023/09/08 14:35:41;;;;;;;4.80;4.13;;;;;;;;;;5053484;28;20029;-61
2023/09/08 14:38:08;;;;;;;9.55;4.40;;;;;;;;;;5053888;28;20049;-61
2023/09/08 14:40:34;;;;;;;4.53;4.13;;;;;;;;;;5053718;28;20036;-61